createdAt,value
2023-02-22T00:04:21.028Z,28.77
2023-02-22T00:06:49.781Z,25.10
2023-02-22T00:09:20.743Z,26.17
2023-02-22T00:11:48.783Z,33.85
2023-02-22T00:14:20.390Z,27.75
2023-02-22T00:16:48.047Z,25.42
2023-02-22T00:19:16.976Z,33.42
2023-02-22T00:21:45.191Z,34.70
2023-02-22T00:24:23.112Z,30.85
2023-02-22T00:26:52.005Z,24.90
2023-02-22T00:29:20.728Z,32.08
2023-02-22T00:31:48.417Z,31.77
2023-02-22T00:34:17.333Z,32.42
2023-02-22T00:36:48.234Z,27.67
2023-02-22T00:39:15.925Z,23.75
2023-02-22T00:41:43.733Z,30.35
2023-02-22T00:44:11.666Z,29.95
2023-02-22T00:46:39.185Z,32.10
2023-02-22T00:49:06.711Z,28.83
2023-02-22T00:51:35.521Z,32.95
2023-02-22T00:54:03.029Z,35.63
2023-02-22T00:56:30.552Z,27.77
2023-02-22T00:58:58.087Z,25.38
2023-02-22T01:01:25.620Z,33.97
2023-02-22T01:03:53.080Z,23.80
2023-02-22T01:06:21.019Z,23.65
2023-02-22T01:08:50.030Z,28.13
2023-02-22T01:11:18.554Z,30.67
2023-02-22T01:13:46.268Z,33.33
2023-02-22T01:16:13.786Z,30.23
2023-02-22T01:18:41.286Z,38.08
2023-02-22T01:21:08.935Z,34.42
2023-02-22T01:23:36.577Z,32.42
2023-02-22T01:26:06.077Z,33.05
2023-02-22T01:28:33.801Z,34.03
2023-02-22T01:31:02.844Z,40.30
2023-02-22T01:33:30.489Z,43.55
2023-02-22T01:35:58.113Z,39.03
2023-02-22T01:38:26.101Z,39.75
2023-02-22T01:40:53.707Z,44.08
2023-02-22T01:43:24.255Z,38.92
2023-02-22T01:45:57.336Z,40.58
2023-02-22T01:48:29.618Z,46.58
2023-02-22T01:51:00.972Z,41.03
2023-02-22T01:53:31.582Z,39.15
2023-02-22T01:55:59.630Z,44.65
2023-02-22T01:58:29.667Z,43.92
2023-02-22T02:00:58.539Z,38.15
2023-02-22T02:03:29.395Z,37.22
2023-02-22T02:06:00.038Z,26.98
2023-02-22T02:08:36.019Z,36.90
2023-02-22T02:11:05.923Z,36.55
2023-02-22T02:13:36.672Z,37.83
2023-02-22T02:16:04.615Z,41.17
2023-02-22T02:18:32.717Z,41.47
2023-02-22T02:21:22.081Z,42.75
2023-02-22T02:24:19.855Z,34.78
2023-02-22T02:27:03.574Z,40.30
2023-02-22T02:29:52.248Z,43.75
2023-02-22T02:32:41.892Z,42.75
2023-02-22T02:35:14.319Z,45.78
2023-02-22T02:37:48.892Z,47.60
2023-02-22T02:40:21.580Z,45.28
2023-02-22T02:42:54.653Z,42.65
2023-02-22T02:45:24.990Z,45.63
2023-02-22T02:47:58.586Z,44.88
2023-02-22T02:50:29.070Z,43.63
2023-02-22T02:52:58.729Z,47.20
2023-02-22T02:55:26.520Z,43.53
2023-02-22T02:57:53.990Z,49.35
2023-02-22T03:00:25.801Z,40.60
2023-02-22T03:03:03.172Z,34.22
2023-02-22T03:05:42.949Z,40.38
2023-02-22T03:08:14.688Z,37.85
2023-02-22T03:10:54.116Z,40.70
2023-02-22T03:13:28.826Z,47.55
2023-02-22T03:16:03.608Z,49.13
2023-02-22T03:18:43.019Z,46.15
2023-02-22T03:21:16.543Z,42.65
2023-02-22T03:23:46.687Z,46.92
2023-02-22T03:26:19.389Z,44.25
2023-02-22T03:28:48.810Z,48.40
2023-02-22T03:31:19.496Z,46.15
2023-02-22T03:33:52.145Z,44.13
2023-02-22T03:36:24.931Z,44.72
2023-02-22T03:38:55.457Z,53.00
2023-02-22T03:41:25.153Z,46.20
2023-02-22T03:43:55.929Z,40.20
2023-02-22T03:46:24.799Z,37.13
2023-02-22T03:48:57.209Z,31.30
2023-02-22T03:51:24.934Z,36.85
2023-02-22T03:53:53.670Z,30.38
2023-02-22T03:56:24.527Z,25.50
2023-02-22T03:58:52.621Z,38.85
2023-02-22T04:01:23.580Z,39.05
2023-02-22T04:03:51.089Z,34.50
2023-02-22T04:06:19.968Z,30.23
2023-02-22T04:08:47.445Z,37.00
2023-02-22T04:11:15.349Z,40.63
2023-02-22T04:13:42.939Z,41.03
2023-02-22T04:16:10.655Z,40.70
2023-02-22T04:18:38.211Z,41.38
2023-02-22T04:21:05.978Z,37.63
2023-02-22T04:23:34.749Z,38.20
2023-02-22T04:26:03.464Z,39.95
2023-02-22T04:28:30.950Z,38.35
2023-02-22T04:30:58.429Z,43.55
2023-02-22T04:33:25.957Z,26.55
2023-02-22T04:35:53.458Z,30.45
2023-02-22T04:38:20.989Z,28.80
2023-02-22T04:40:49.856Z,40.25
2023-02-22T04:43:17.441Z,42.33
2023-02-22T04:45:44.965Z,36.50
2023-02-22T04:48:12.482Z,50.22
2023-02-22T04:50:40.555Z,32.90
2023-02-22T04:53:08.046Z,31.92
2023-02-22T04:55:35.523Z,62.67
2023-02-22T04:58:04.358Z,35.95
2023-02-22T05:00:31.824Z,43.83
2023-02-22T05:02:59.351Z,32.05
2023-02-22T05:05:26.830Z,44.03
2023-02-22T05:07:54.351Z,62.75
2023-02-22T05:10:22.017Z,37.92
2023-02-22T05:12:49.598Z,31.42
2023-02-22T05:15:20.468Z,63.50
2023-02-22T05:17:48.031Z,50.63
2023-02-22T05:20:19.862Z,75.05
2023-02-22T05:22:47.415Z,50.88
2023-02-22T05:25:15.062Z,48.28
2023-02-22T05:27:42.531Z,46.65
2023-02-22T05:30:12.668Z,39.75
2023-02-22T05:32:41.462Z,40.85
2023-02-22T05:35:09.257Z,36.78
2023-02-22T05:37:39.233Z,39.90
2023-02-22T05:40:07.682Z,41.63
2023-02-22T05:42:35.199Z,40.00
2023-02-22T05:45:03.643Z,41.22
2023-02-22T05:47:31.112Z,41.00
2023-02-22T05:49:59.922Z,40.30
2023-02-22T05:52:27.672Z,43.85
2023-02-22T05:54:55.147Z,43.00
2023-02-22T05:57:22.776Z,36.50
2023-02-22T05:59:50.808Z,53.72
2023-02-22T06:02:18.428Z,50.55
2023-02-22T06:04:46.034Z,44.38
2023-02-22T06:07:15.613Z,39.42
2023-02-22T06:09:43.436Z,43.40
2023-02-22T06:12:11.229Z,48.40
2023-02-22T06:14:40.879Z,45.70
2023-02-22T06:17:08.376Z,41.08
2023-02-22T06:19:35.978Z,47.00
2023-02-22T06:22:03.507Z,46.33
2023-02-22T06:24:32.375Z,52.72
2023-02-22T06:27:01.320Z,45.70
2023-02-22T06:29:29.634Z,64.50
2023-02-22T06:31:57.190Z,48.42
2023-02-22T06:34:24.721Z,46.03
2023-02-22T06:36:52.180Z,101.30
2023-02-22T06:39:19.805Z,162.93
2023-02-22T06:41:50.424Z,59.45
2023-02-22T06:44:17.986Z,48.83
2023-02-22T06:46:51.139Z,50.05
2023-02-22T06:49:19.229Z,51.88
2023-02-22T06:51:47.011Z,50.45
2023-02-22T06:54:15.018Z,45.42
2023-02-22T06:56:42.503Z,43.35
2023-02-22T06:59:11.333Z,164.25
2023-02-22T07:01:41.458Z,58.78
2023-02-22T07:04:09.026Z,49.97
2023-02-22T07:06:37.292Z,46.33
2023-02-22T07:09:05.110Z,48.72
2023-02-22T07:11:32.667Z,66.55
2023-02-22T07:14:00.155Z,55.35
2023-02-22T07:16:29.019Z,44.65
2023-02-22T07:18:56.582Z,50.33
2023-02-22T07:21:24.727Z,45.20
2023-02-22T07:23:53.831Z,48.72
2023-02-22T07:26:21.675Z,57.92
2023-02-22T07:28:49.762Z,44.30
2023-02-22T07:31:18.200Z,38.58
2023-02-22T07:33:48.337Z,36.92
2023-02-22T07:36:17.848Z,37.83
2023-02-22T07:38:45.644Z,40.75
2023-02-22T07:41:13.264Z,47.63
2023-02-22T07:43:40.823Z,34.92
2023-02-22T07:46:08.476Z,33.53
2023-02-22T07:48:35.965Z,30.23
2023-02-22T07:51:05.934Z,32.88
2023-02-22T07:53:34.364Z,34.88
2023-02-22T07:56:03.119Z,30.85
2023-02-22T07:58:31.645Z,36.40
2023-02-22T08:01:01.985Z,30.27
2023-02-22T08:03:34.266Z,26.02
2023-02-22T08:06:02.960Z,27.38
2023-02-22T08:08:31.810Z,32.92
2023-02-22T08:10:59.351Z,33.47
2023-02-22T08:13:26.857Z,45.30
2023-02-22T08:15:55.221Z,26.80
2023-02-22T08:18:25.954Z,34.35
2023-02-22T08:20:54.755Z,34.17
2023-02-22T08:23:25.209Z,20.80
2023-02-22T08:25:54.364Z,23.08
2023-02-22T08:28:23.531Z,22.58
2023-02-22T08:30:51.639Z,24.05
2023-02-22T08:33:20.443Z,61.30
2023-02-22T08:35:50.035Z,32.83
2023-02-22T08:38:20.410Z,31.13
2023-02-22T08:40:48.994Z,27.70
2023-02-22T08:43:18.238Z,30.20
2023-02-22T08:45:46.379Z,34.38
2023-02-22T08:48:14.982Z,31.17
2023-02-22T08:50:42.794Z,30.17
2023-02-22T08:53:11.467Z,28.45
2023-02-22T08:55:40.122Z,30.42
2023-02-22T08:58:09.677Z,32.33
2023-02-22T09:00:39.498Z,36.45
2023-02-22T09:03:08.227Z,32.60
2023-02-22T09:05:35.772Z,35.70
2023-02-22T09:08:03.600Z,31.42
2023-02-22T09:10:32.653Z,26.38
2023-02-22T09:13:01.178Z,30.35
2023-02-22T09:15:29.556Z,34.28
2023-02-22T09:17:58.446Z,26.52
2023-02-22T09:20:26.354Z,30.15
2023-02-22T09:22:54.699Z,27.98
2023-02-22T09:25:22.624Z,28.20
2023-02-22T09:27:50.869Z,26.08
2023-02-22T09:30:23.518Z,27.77
2023-02-22T09:35:26.829Z,30.00
2023-02-22T09:37:55.847Z,27.73
2023-02-22T09:40:29.932Z,24.70
2023-02-22T09:43:11.950Z,31.27
2023-02-22T09:45:48.168Z,27.05
2023-02-22T09:48:21.952Z,32.08
2023-02-22T09:50:52.574Z,34.35
2023-02-22T09:53:29.452Z,26.52
2023-02-22T09:56:00.449Z,28.92
2023-02-22T09:58:33.652Z,29.88
2023-02-22T10:01:17.631Z,26.48
2023-02-22T10:03:51.121Z,28.40
2023-02-22T10:06:22.750Z,27.23
2023-02-22T10:08:54.593Z,26.02
2023-02-22T10:11:34.505Z,23.92
2023-02-22T10:14:09.809Z,27.67
2023-02-22T10:16:41.141Z,23.65
2023-02-22T10:19:18.657Z,24.95
2023-02-22T10:21:55.252Z,24.45
2023-02-22T10:24:32.207Z,21.48
2023-02-22T10:27:00.147Z,19.10
2023-02-22T10:29:32.579Z,20.35
2023-02-22T10:32:03.045Z,20.98
2023-02-22T10:34:34.261Z,25.73
2023-02-22T10:37:24.618Z,23.63
2023-02-22T10:39:54.716Z,24.88
2023-02-22T10:42:23.967Z,21.58
2023-02-22T10:44:51.488Z,22.15
2023-02-22T10:47:21.837Z,26.23
2023-02-22T10:49:52.302Z,26.35
2023-02-22T10:52:26.198Z,27.15
2023-02-22T10:55:01.019Z,29.00
2023-02-22T10:57:35.958Z,33.63
2023-02-22T11:00:19.554Z,51.70
2023-02-22T11:02:54.603Z,31.00
2023-02-22T11:05:30.383Z,35.15
2023-02-22T11:08:19.988Z,29.00
2023-02-22T11:10:48.184Z,27.38
2023-02-22T11:13:20.227Z,24.15
2023-02-22T11:15:47.981Z,23.38
2023-02-22T11:18:25.084Z,28.50
2023-02-22T11:21:04.217Z,23.55
2023-02-22T11:23:33.540Z,27.13
2023-02-22T11:26:03.694Z,31.02
2023-02-22T11:28:32.810Z,61.10
2023-02-22T11:31:11.087Z,26.20
2023-02-22T11:33:38.950Z,30.02
2023-02-22T11:36:10.200Z,24.80
2023-02-22T11:38:40.092Z,26.05
2023-02-22T11:41:18.794Z,25.95
2023-02-22T11:43:47.916Z,25.65
2023-02-22T11:46:18.816Z,25.45
2023-02-22T11:48:55.286Z,23.58
2023-02-22T11:51:30.967Z,23.42
2023-02-22T11:54:31.175Z,21.80
2023-02-22T11:57:07.994Z,21.65
2023-02-22T11:59:40.660Z,22.45
2023-02-22T12:04:56.632Z,21.42
2023-02-22T12:07:33.317Z,44.67
2023-02-22T12:10:09.961Z,18.95
2023-02-22T12:12:55.675Z,19.45
2023-02-22T12:15:29.883Z,18.63
2023-02-22T12:18:02.123Z,18.45
2023-02-22T12:20:33.348Z,18.58
2023-02-22T12:23:06.980Z,20.40
2023-02-22T12:25:38.825Z,20.35
2023-02-22T12:28:24.314Z,20.53
2023-02-22T12:30:56.475Z,18.65
2023-02-22T12:33:26.961Z,20.35
2023-02-22T12:35:56.652Z,21.95
2023-02-22T12:38:31.109Z,19.85
2023-02-22T12:41:04.795Z,18.73
2023-02-22T12:43:35.558Z,37.22
2023-02-22T12:46:05.653Z,17.40
2023-02-22T12:48:41.885Z,19.73
2023-02-22T12:51:22.344Z,19.00
2023-02-22T12:53:57.225Z,18.42
2023-02-22T12:56:31.804Z,21.02
2023-02-22T12:59:03.882Z,20.50
2023-02-22T13:01:36.688Z,16.33
2023-02-22T13:04:19.506Z,15.35
2023-02-22T13:06:58.087Z,17.13
2023-02-22T13:09:59.950Z,20.20
2023-02-22T13:12:36.138Z,23.45
2023-02-22T13:15:09.437Z,15.00
2023-02-22T13:17:42.368Z,17.90
2023-02-22T13:20:14.642Z,15.82
2023-02-22T13:22:46.182Z,16.80
2023-02-22T13:25:19.826Z,15.57
2023-02-22T13:27:52.465Z,18.73
2023-02-22T13:33:19.180Z,22.83
2023-02-22T13:36:03.072Z,17.60
2023-02-22T13:38:45.217Z,16.35
2023-02-22T13:41:34.913Z,17.95
2023-02-22T13:44:35.193Z,18.38
2023-02-22T13:47:39.918Z,28.45
2023-02-22T13:50:30.178Z,20.02
2023-02-22T13:52:59.216Z,20.50
2023-02-22T13:55:34.644Z,16.75
2023-02-22T13:58:04.912Z,17.73
2023-02-22T14:00:48.270Z,19.67
2023-02-22T14:03:36.217Z,21.52
2023-02-22T14:06:13.076Z,19.25
2023-02-22T14:08:50.340Z,18.77
2023-02-22T14:11:56.797Z,23.42
2023-02-22T14:14:24.776Z,19.98
2023-02-22T14:17:25.053Z,19.25
2023-02-22T14:20:02.532Z,20.77
2023-02-22T14:22:31.002Z,22.63
2023-02-22T14:24:59.399Z,20.48
2023-02-22T14:27:40.511Z,20.77
2023-02-22T14:30:24.782Z,17.65
2023-02-22T14:32:53.833Z,24.77
2023-02-22T14:35:30.019Z,23.20
2023-02-22T14:38:04.133Z,21.77
2023-02-22T14:40:33.682Z,21.60
2023-02-22T14:43:03.413Z,21.75
2023-02-22T14:45:33.350Z,22.10
2023-02-22T14:48:11.601Z,26.92
2023-02-22T14:50:45.843Z,21.88
2023-02-22T14:53:21.127Z,18.80
2023-02-22T14:55:53.316Z,19.58
2023-02-22T14:58:23.347Z,21.63
2023-02-22T15:00:52.862Z,19.70
2023-02-22T15:03:32.682Z,23.15
2023-02-22T15:06:05.799Z,22.27
2023-02-22T15:08:34.336Z,19.80
2023-02-22T15:11:03.442Z,21.30
2023-02-22T15:13:32.937Z,18.80
2023-02-22T15:16:02.364Z,19.65
2023-02-22T15:18:35.425Z,21.20
2023-02-22T15:21:10.502Z,20.65
2023-02-22T15:23:44.500Z,25.08
2023-02-22T15:26:20.258Z,19.13
2023-02-22T15:28:48.492Z,22.75
2023-02-22T15:31:25.053Z,22.33
2023-02-22T15:33:55.445Z,24.10
2023-02-22T15:36:27.142Z,21.80
2023-02-22T15:38:56.736Z,20.77
2023-02-22T15:41:28.747Z,22.35
2023-02-22T15:44:14.202Z,32.72
2023-02-22T15:46:48.944Z,38.13
2023-02-22T15:49:24.624Z,25.02
2023-02-22T15:52:10.869Z,24.58
2023-02-22T15:54:44.641Z,19.27
2023-02-22T15:57:15.655Z,23.13
2023-02-22T15:59:46.816Z,26.90
2023-02-22T16:02:30.073Z,24.00
2023-02-22T16:05:01.682Z,27.10
2023-02-22T16:07:29.354Z,37.25
2023-02-22T16:09:57.024Z,30.63
2023-02-22T16:12:27.627Z,38.55
2023-02-22T16:15:00.817Z,37.97
2023-02-22T16:17:36.301Z,29.02
2023-02-22T16:20:33.471Z,25.17
2023-02-22T16:23:01.034Z,29.60
2023-02-22T16:25:33.079Z,24.35
2023-02-22T16:28:06.084Z,23.77
2023-02-22T16:30:35.544Z,20.02
2023-02-22T16:33:06.421Z,23.00
2023-02-22T16:35:35.656Z,20.65
2023-02-22T16:38:04.638Z,24.90
2023-02-22T16:40:34.548Z,33.35
2023-02-22T16:43:03.786Z,23.02
2023-02-22T16:45:31.293Z,22.15
2023-02-22T16:47:59.777Z,24.48
2023-02-22T16:50:27.464Z,27.55
2023-02-22T16:52:58.522Z,22.67
2023-02-22T16:55:26.034Z,25.95
2023-02-22T16:57:56.362Z,29.30
2023-02-22T17:00:31.653Z,24.38
2023-02-22T17:03:02.468Z,24.75
2023-02-22T17:05:30.270Z,28.25
2023-02-22T17:07:59.298Z,28.15
2023-02-22T17:10:27.069Z,28.83
2023-02-22T17:12:54.890Z,26.50
2023-02-22T17:15:25.038Z,26.25
2023-02-22T17:17:54.127Z,27.42
2023-02-22T17:20:30.004Z,26.52
2023-02-22T17:23:00.024Z,29.40
2023-02-22T17:25:31.204Z,25.10
2023-02-22T17:27:59.008Z,26.98
2023-02-22T17:30:28.074Z,21.92
2023-02-22T17:33:03.404Z,24.48
2023-02-22T17:35:35.084Z,24.90
2023-02-22T17:38:06.919Z,50.25
2023-02-22T17:40:35.543Z,68.70
2023-02-22T17:43:03.245Z,33.33
2023-02-22T17:45:31.199Z,30.52
2023-02-22T17:47:59.493Z,40.40
2023-02-22T17:50:27.610Z,84.05
2023-02-22T17:52:55.311Z,29.98
2023-02-22T17:55:24.381Z,32.15
2023-02-22T17:57:58.209Z,37.17
2023-02-22T18:00:33.016Z,30.58
2023-02-22T18:03:02.425Z,32.25
2023-02-22T18:05:30.812Z,26.58
2023-02-22T18:07:58.484Z,28.30
2023-02-22T18:10:27.691Z,23.30
2023-02-22T18:12:56.712Z,25.75
2023-02-22T18:15:28.198Z,29.17
2023-02-22T18:17:56.433Z,24.65
2023-02-22T18:20:31.248Z,25.40
2023-02-22T18:22:59.693Z,22.10
2023-02-22T18:25:28.491Z,23.77
2023-02-22T18:27:56.286Z,25.30
2023-02-22T18:30:24.274Z,25.10
2023-02-22T18:32:52.137Z,23.02
2023-02-22T18:35:19.755Z,26.65
2023-02-22T18:37:47.241Z,21.90
2023-02-22T18:40:18.908Z,20.77
2023-02-22T18:42:48.009Z,26.02
2023-02-22T18:45:15.658Z,22.30
2023-02-22T18:47:45.499Z,22.05
2023-02-22T18:50:13.813Z,23.35
2023-02-22T18:52:45.743Z,22.50
2023-02-22T18:55:14.973Z,21.95
2023-02-22T18:57:42.889Z,24.90
2023-02-22T19:00:14.265Z,20.95
2023-02-22T19:02:43.492Z,22.73
2023-02-22T19:05:11.280Z,20.10
2023-02-22T19:07:38.903Z,23.13
2023-02-22T19:10:07.760Z,24.40
2023-02-22T19:12:35.603Z,20.77
2023-02-22T19:15:03.445Z,26.63
2023-02-22T19:17:32.586Z,24.48
2023-02-22T19:20:00.100Z,20.15
2023-02-22T19:22:32.637Z,22.95
2023-02-22T19:25:01.253Z,25.38
2023-02-22T19:27:30.314Z,19.38
2023-02-22T19:29:59.329Z,18.98
2023-02-22T19:32:27.331Z,20.85
2023-02-22T19:35:02.077Z,20.80
2023-02-22T19:37:35.553Z,16.40
2023-02-22T19:40:06.605Z,20.52
2023-02-22T19:42:34.373Z,20.25
2023-02-22T19:45:02.124Z,17.70
2023-02-22T19:47:29.653Z,24.60
2023-02-22T19:49:59.926Z,23.88
2023-02-22T19:52:28.880Z,21.08
2023-02-22T19:54:56.461Z,21.50
2023-02-22T19:57:24.800Z,21.95
2023-02-22T19:59:52.330Z,23.63
2023-02-22T20:02:22.863Z,21.45
2023-02-22T20:04:51.271Z,22.17
2023-02-22T20:07:20.311Z,21.90
2023-02-22T20:09:49.721Z,26.50
2023-02-22T20:12:17.364Z,24.67
2023-02-22T20:14:46.170Z,24.40
2023-02-22T20:17:13.689Z,25.10
2023-02-22T20:19:42.422Z,25.42
2023-02-22T20:22:13.288Z,23.00
2023-02-22T20:24:42.415Z,24.63
2023-02-22T20:27:10.179Z,25.55
2023-02-22T20:29:38.765Z,26.63
2023-02-22T20:32:09.326Z,25.30
2023-02-22T20:34:37.197Z,27.63
2023-02-22T20:37:05.199Z,23.70
2023-02-22T20:39:32.904Z,26.52
2023-02-22T20:42:03.495Z,30.25
2023-02-22T20:44:31.374Z,28.35
2023-02-22T20:46:59.024Z,29.13
2023-02-22T20:49:27.255Z,30.45
2023-02-22T20:51:54.893Z,35.28
2023-02-22T20:54:22.387Z,31.67
2023-02-22T20:56:52.624Z,32.80
2023-02-22T20:59:22.034Z,29.23
2023-02-22T21:01:50.305Z,31.45
2023-02-22T21:04:18.236Z,29.40
2023-02-22T21:06:46.636Z,28.73
2023-02-22T21:09:16.142Z,31.05
2023-02-22T21:11:43.757Z,32.72
2023-02-22T21:14:12.341Z,35.90
2023-02-22T21:16:41.180Z,37.95
2023-02-22T21:19:08.823Z,34.28
2023-02-22T21:21:36.621Z,32.05
2023-02-22T21:24:04.623Z,32.53
2023-02-22T21:26:33.784Z,32.70
2023-02-22T21:29:03.352Z,27.45
2023-02-22T21:31:32.238Z,36.45
2023-02-22T21:34:01.975Z,27.33
2023-02-22T21:36:29.936Z,33.55
2023-02-22T21:38:59.011Z,28.55
2023-02-22T21:41:28.932Z,29.90
2023-02-22T21:43:57.898Z,33.15
2023-02-22T21:46:26.378Z,33.28
2023-02-22T21:48:53.915Z,30.50
2023-02-22T21:51:25.324Z,32.55
2023-02-22T21:53:54.937Z,29.13
2023-02-22T21:56:27.201Z,29.55
2023-02-22T21:58:58.969Z,27.45
2023-02-22T22:01:28.354Z,35.13
2023-02-22T22:03:59.456Z,23.58
2023-02-22T22:06:29.689Z,30.35
2023-02-22T22:08:57.781Z,29.65
2023-02-22T22:11:25.437Z,26.48
2023-02-22T22:13:56.975Z,29.05
2023-02-22T22:16:26.381Z,22.55
2023-02-22T22:18:54.790Z,27.75
2023-02-22T22:21:24.012Z,31.10
2023-02-22T22:23:55.908Z,26.60
2023-02-22T22:26:24.745Z,25.95
2023-02-22T22:28:54.554Z,30.27
2023-02-22T22:31:24.108Z,31.27
2023-02-22T22:33:51.855Z,30.38
2023-02-22T22:36:21.482Z,28.83
2023-02-22T22:38:49.074Z,28.60
2023-02-22T22:41:19.982Z,27.65
2023-02-22T22:43:48.176Z,33.78
2023-02-22T22:46:17.415Z,29.20
2023-02-22T22:48:47.149Z,27.08
2023-02-22T22:51:18.102Z,27.25
2023-02-22T22:53:47.638Z,25.02
2023-02-22T22:56:18.532Z,20.45
2023-02-22T22:58:49.268Z,26.13
2023-02-22T23:01:19.735Z,19.40
2023-02-22T23:03:55.689Z,22.45
2023-02-22T23:06:27.286Z,30.33
2023-02-22T23:09:00.073Z,21.38
2023-02-22T23:13:57.598Z,19.55
2023-02-22T23:16:25.616Z,22.58
2023-02-22T23:18:53.157Z,23.75
2023-02-22T23:21:24.218Z,22.70
2023-02-22T23:23:53.311Z,25.30
2023-02-22T23:26:20.826Z,19.20
2023-02-22T23:28:52.377Z,17.13
2023-02-22T23:31:20.454Z,21.85
2023-02-22T23:33:49.138Z,20.75
2023-02-22T23:36:17.376Z,17.98
2023-02-22T23:38:45.453Z,20.65
2023-02-22T23:41:16.361Z,23.05
2023-02-22T23:43:45.362Z,20.77
2023-02-22T23:46:18.560Z,19.48
2023-02-22T23:48:50.819Z,22.40
2023-02-22T23:51:20.569Z,24.15
2023-02-22T23:53:49.493Z,25.95
2023-02-22T23:56:19.022Z,28.25
2023-02-22T23:58:49.860Z,24.40
